createdAt,value
2018-07-31T00:01:03.263Z,41.90
2018-07-31T00:03:33.241Z,41.90
2018-07-31T00:06:03.102Z,41.70
2018-07-31T00:08:33.074Z,41.90
2018-07-31T00:11:02.967Z,42.00
2018-07-31T00:13:32.879Z,42.30
2018-07-31T00:16:02.835Z,42.00
2018-07-31T00:18:32.746Z,42.00
2018-07-31T00:21:02.670Z,41.80
2018-07-31T00:23:32.606Z,41.80
2018-07-31T00:26:02.502Z,42.10
2018-07-31T00:28:32.405Z,42.30
2018-07-31T00:31:02.588Z,42.40
2018-07-31T00:33:32.949Z,42.50
2018-07-31T00:36:03.292Z,42.30
2018-07-31T00:38:33.266Z,42.20
2018-07-31T00:41:03.210Z,42.30
2018-07-31T00:43:33.108Z,42.10
2018-07-31T00:46:03.003Z,42.50
2018-07-31T00:48:32.882Z,42.50
2018-07-31T00:51:02.804Z,42.60
2018-07-31T00:53:32.703Z,42.60
2018-07-31T00:56:02.625Z,42.70
2018-07-31T00:58:32.518Z,42.30
2018-07-31T01:01:02.435Z,42.50
2018-07-31T01:03:32.360Z,42.70
2018-07-31T01:06:02.218Z,42.70
2018-07-31T01:08:32.110Z,42.80
2018-07-31T01:11:02.113Z,43.00
2018-07-31T01:13:32.026Z,43.00
2018-07-31T01:16:01.932Z,43.00
2018-07-31T01:18:31.871Z,43.20
2018-07-31T01:21:04.003Z,43.40
2018-07-31T01:23:33.892Z,43.10
2018-07-31T01:26:03.827Z,43.00
2018-07-31T01:28:33.728Z,43.00
2018-07-31T01:31:03.623Z,43.00
2018-07-31T01:33:33.563Z,43.00
2018-07-31T01:36:03.495Z,43.00
2018-07-31T01:38:33.410Z,43.10
2018-07-31T01:41:03.375Z,43.20
2018-07-31T01:43:33.278Z,43.30
2018-07-31T01:46:03.567Z,43.40
2018-07-31T01:48:33.530Z,43.40
2018-07-31T01:51:03.787Z,43.80
2018-07-31T01:53:33.690Z,43.50
2018-07-31T01:56:03.614Z,43.50
2018-07-31T01:58:33.534Z,43.20
2018-07-31T02:01:03.435Z,43.10
2018-07-31T02:03:33.345Z,44.00
2018-07-31T02:06:03.266Z,43.70
2018-07-31T02:08:33.154Z,43.90
2018-07-31T02:11:03.056Z,44.10
2018-07-31T02:13:32.952Z,44.20
2018-07-31T02:16:02.858Z,44.00
2018-07-31T02:18:32.754Z,43.80
2018-07-31T02:21:02.671Z,43.80
2018-07-31T02:23:32.594Z,44.10
2018-07-31T02:26:02.463Z,44.00
2018-07-31T02:28:32.422Z,43.90
2018-07-31T02:31:02.291Z,43.80
2018-07-31T02:33:32.142Z,43.70
2018-07-31T02:36:02.059Z,43.60
2018-07-31T02:38:31.910Z,43.90
2018-07-31T02:41:01.783Z,44.10
2018-07-31T02:43:31.674Z,43.90
2018-07-31T02:46:01.530Z,43.90
2018-07-31T02:48:31.396Z,44.10
2018-07-31T02:51:01.246Z,44.00
2018-07-31T02:53:31.103Z,44.30
2018-07-31T02:56:00.958Z,44.60
2018-07-31T02:58:30.819Z,44.20
2018-07-31T03:01:00.692Z,44.30
2018-07-31T03:03:30.558Z,44.30
2018-07-31T03:06:00.438Z,44.30
2018-07-31T03:08:30.303Z,44.20
2018-07-31T03:11:00.168Z,44.20
2018-07-31T03:13:30.050Z,44.20
2018-07-31T03:15:59.919Z,44.20
2018-07-31T03:18:29.756Z,44.20
2018-07-31T03:20:59.610Z,44.30
2018-07-31T03:23:29.466Z,44.30
2018-07-31T03:25:59.410Z,44.10
2018-07-31T03:28:29.280Z,44.00
2018-07-31T03:30:59.158Z,43.90
2018-07-31T03:33:29.081Z,44.30
2018-07-31T03:35:58.982Z,44.10
2018-07-31T03:38:28.879Z,44.20
2018-07-31T03:40:58.773Z,44.30
2018-07-31T03:43:28.679Z,44.40
2018-07-31T03:45:58.570Z,44.40
2018-07-31T03:48:28.542Z,44.40
2018-07-31T03:50:58.467Z,44.30
2018-07-31T03:53:28.370Z,44.40
2018-07-31T03:55:58.262Z,44.60
2018-07-31T03:58:28.197Z,44.70
2018-07-31T04:00:58.104Z,44.60
2018-07-31T04:03:28.022Z,44.40
2018-07-31T04:05:57.924Z,45.20
2018-07-31T04:08:27.825Z,45.00
2018-07-31T04:10:57.734Z,44.40
2018-07-31T04:13:27.649Z,44.50
2018-07-31T04:15:57.543Z,44.70
2018-07-31T04:18:27.443Z,44.80
2018-07-31T04:20:57.347Z,45.40
2018-07-31T04:23:27.234Z,44.80
2018-07-31T04:25:57.146Z,44.90
2018-07-31T04:28:27.056Z,45.20
2018-07-31T04:30:56.958Z,45.10
2018-07-31T04:33:26.823Z,45.30
2018-07-31T04:35:56.742Z,45.40
2018-07-31T04:38:26.586Z,45.90
2018-07-31T04:40:56.469Z,45.20
2018-07-31T04:43:26.358Z,44.90
2018-07-31T04:45:56.225Z,45.30
2018-07-31T04:50:58.052Z,45.50
2018-07-31T04:53:27.898Z,45.50
2018-07-31T04:55:57.765Z,46.10
2018-07-31T04:58:27.618Z,45.40
2018-07-31T05:00:57.595Z,45.40
2018-07-31T05:03:27.444Z,45.70
2018-07-31T05:05:57.294Z,45.50
2018-07-31T05:08:27.134Z,45.50
2018-07-31T05:10:57.021Z,45.40
2018-07-31T05:13:26.838Z,45.50
2018-07-31T05:15:56.703Z,45.50
2018-07-31T05:18:26.638Z,45.20
2018-07-31T05:20:56.422Z,45.50
2018-07-31T05:23:26.277Z,45.40
2018-07-31T05:25:56.130Z,45.40
2018-07-31T05:28:26.278Z,45.50
2018-07-31T05:30:56.134Z,45.60
2018-07-31T05:33:26.010Z,45.60
2018-07-31T05:35:56.336Z,45.70
2018-07-31T05:38:26.186Z,46.60
2018-07-31T05:40:56.039Z,46.20
2018-07-31T05:43:25.887Z,46.30
2018-07-31T05:45:55.751Z,46.40
2018-07-31T05:48:25.621Z,46.20
2018-07-31T05:50:55.495Z,46.20
2018-07-31T05:53:25.355Z,46.20
2018-07-31T05:55:55.194Z,46.50
2018-07-31T05:58:25.054Z,47.00
2018-07-31T06:00:54.982Z,46.40
2018-07-31T06:03:24.864Z,46.40
2018-07-31T06:05:55.035Z,46.30
2018-07-31T06:08:24.897Z,46.20
2018-07-31T06:10:54.754Z,46.50
2018-07-31T06:13:24.622Z,46.50
2018-07-31T06:15:54.515Z,46.50
2018-07-31T06:18:24.384Z,46.60
2018-07-31T06:20:54.386Z,47.30
2018-07-31T06:23:24.258Z,46.70
2018-07-31T06:25:54.126Z,46.60
2018-07-31T06:28:23.994Z,46.60
2018-07-31T06:30:53.862Z,46.80
2018-07-31T06:33:23.755Z,46.70
2018-07-31T06:35:54.253Z,46.70
2018-07-31T06:38:24.158Z,46.70
2018-07-31T06:40:54.515Z,46.60
2018-07-31T06:43:24.508Z,46.70
2018-07-31T06:45:54.382Z,46.60
2018-07-31T06:48:24.298Z,46.50
2018-07-31T06:50:54.307Z,46.40
2018-07-31T06:53:24.198Z,46.40
2018-07-31T06:55:54.063Z,46.30
2018-07-31T06:58:23.934Z,46.10
2018-07-31T07:00:53.827Z,46.10
2018-07-31T07:03:23.677Z,45.10
2018-07-31T07:05:53.630Z,45.90
2018-07-31T07:08:23.513Z,45.70
2018-07-31T07:10:53.403Z,45.60
2018-07-31T07:13:23.264Z,46.00
2018-07-31T07:15:53.122Z,45.90
2018-07-31T07:18:22.979Z,46.00
2018-07-31T07:20:52.839Z,46.30
2018-07-31T07:23:22.710Z,45.60
2018-07-31T07:25:52.565Z,46.30
2018-07-31T07:28:22.430Z,45.60
2018-07-31T07:30:52.282Z,45.80
2018-07-31T07:33:22.168Z,45.40
2018-07-31T07:35:52.518Z,45.00
2018-07-31T07:38:22.387Z,45.50
2018-07-31T07:40:52.475Z,44.80
2018-07-31T07:43:22.342Z,45.20
2018-07-31T07:45:52.294Z,45.00
2018-07-31T07:48:22.181Z,44.90
2018-07-31T07:50:52.002Z,44.60
2018-07-31T07:53:21.902Z,44.90
2018-07-31T07:55:51.772Z,44.50
2018-07-31T07:58:21.620Z,44.50
2018-07-31T08:00:51.519Z,44.30
2018-07-31T08:03:21.398Z,44.30
2018-07-31T08:08:20.867Z,44.10
2018-07-31T08:10:55.383Z,43.90
2018-07-31T08:13:30.678Z,44.00
2018-07-31T08:16:00.536Z,44.00
2018-07-31T08:18:30.387Z,43.90
2018-07-31T08:21:05.530Z,44.10
2018-07-31T08:23:39.758Z,44.40
2018-07-31T08:26:09.662Z,44.00
2018-07-31T08:28:41.709Z,43.70
2018-07-31T08:31:11.566Z,43.70
2018-07-31T08:33:41.487Z,44.90
2018-07-31T08:36:16.588Z,43.90
2018-07-31T08:38:49.792Z,44.20
2018-07-31T08:41:19.796Z,44.00
2018-07-31T08:43:55.044Z,44.20
2018-07-31T08:46:26.727Z,43.60
2018-07-31T08:48:56.642Z,43.40
2018-07-31T08:51:26.538Z,43.10
2018-07-31T08:53:56.434Z,43.20
2018-07-31T08:56:26.360Z,42.80
2018-07-31T08:58:56.287Z,42.90
2018-07-31T09:01:26.214Z,42.90
2018-07-31T09:03:56.138Z,42.70
2018-07-31T09:06:26.078Z,42.60
2018-07-31T09:08:56.023Z,43.30
2018-07-31T09:11:25.828Z,42.50
2018-07-31T09:13:55.684Z,42.50
2018-07-31T09:16:25.533Z,42.10
2018-07-31T09:18:55.377Z,42.60
2018-07-31T09:21:25.210Z,42.50
2018-07-31T09:23:55.091Z,42.30
2018-07-31T09:26:24.910Z,42.40
2018-07-31T09:28:54.753Z,42.50
2018-07-31T09:31:24.666Z,42.30
2018-07-31T09:33:54.651Z,42.30
2018-07-31T09:36:24.513Z,42.10
2018-07-31T09:38:54.321Z,42.50
2018-07-31T09:41:24.180Z,42.50
2018-07-31T09:43:54.018Z,42.50
2018-07-31T09:46:23.854Z,42.50
2018-07-31T09:48:54.015Z,42.80
2018-07-31T09:51:23.930Z,42.40
2018-07-31T09:53:53.782Z,42.50
2018-07-31T09:56:23.706Z,42.40
2018-07-31T09:58:53.562Z,42.20
2018-07-31T10:01:23.490Z,42.20
2018-07-31T10:03:53.435Z,42.20
2018-07-31T10:06:23.270Z,41.80
2018-07-31T10:08:53.952Z,42.20
2018-07-31T10:11:23.867Z,41.70
2018-07-31T10:13:53.734Z,40.80
2018-07-31T10:16:23.787Z,40.60
2018-07-31T10:18:53.762Z,40.40
2018-07-31T10:21:23.605Z,40.50
2018-07-31T10:23:53.518Z,40.80
2018-07-31T10:26:23.334Z,40.40
2018-07-31T10:28:53.186Z,39.60
2018-07-31T10:31:23.022Z,39.20
2018-07-31T10:33:52.905Z,39.70
2018-07-31T10:36:22.761Z,39.40
2018-07-31T10:38:52.598Z,39.50
2018-07-31T10:41:22.483Z,39.60
2018-07-31T10:43:52.355Z,39.30
2018-07-31T10:46:22.191Z,39.10
2018-07-31T10:48:52.038Z,38.80
2018-07-31T10:51:21.875Z,38.80
2018-07-31T10:53:51.715Z,38.30
2018-07-31T10:56:21.730Z,38.20
2018-07-31T10:58:51.549Z,37.80
2018-07-31T11:01:21.407Z,38.70
2018-07-31T11:03:51.257Z,37.50
2018-07-31T11:06:21.247Z,37.20
2018-07-31T11:08:51.108Z,37.00
2018-07-31T11:11:21.079Z,37.10
2018-07-31T11:13:50.982Z,36.60
2018-07-31T11:16:20.890Z,36.10
2018-07-31T11:18:50.800Z,36.20
2018-07-31T11:21:20.721Z,36.40
2018-07-31T11:23:50.602Z,36.70
2018-07-31T11:26:20.516Z,36.40
2018-07-31T11:28:50.450Z,36.40
2018-07-31T11:31:20.385Z,36.40
2018-07-31T11:33:50.387Z,36.40
2018-07-31T11:36:20.419Z,36.20
2018-07-31T11:38:50.419Z,36.30
2018-07-31T11:41:20.846Z,36.70
2018-07-31T11:43:50.752Z,36.70
2018-07-31T11:46:20.659Z,36.80
2018-07-31T11:48:50.557Z,36.60
2018-07-31T11:51:20.450Z,36.80
2018-07-31T11:53:50.353Z,36.90
2018-07-31T11:56:20.256Z,36.90
2018-07-31T11:58:50.263Z,36.70
2018-07-31T12:03:49.734Z,36.70
2018-07-31T12:06:19.674Z,36.30
2018-07-31T12:08:49.584Z,36.80
2018-07-31T12:11:19.483Z,36.70
2018-07-31T12:13:49.410Z,36.70
2018-07-31T12:16:19.273Z,36.80
2018-07-31T12:18:49.179Z,36.90
2018-07-31T12:21:19.094Z,36.50
2018-07-31T12:23:49.012Z,36.40
2018-07-31T12:26:18.898Z,36.40
2018-07-31T12:28:48.812Z,36.20
2018-07-31T12:31:18.702Z,36.00
2018-07-31T12:33:48.957Z,36.20
2018-07-31T12:36:18.967Z,35.80
2018-07-31T12:38:48.907Z,35.70
2018-07-31T12:41:18.751Z,36.10
2018-07-31T12:43:49.034Z,36.10
2018-07-31T12:46:18.935Z,36.00
2018-07-31T12:48:48.844Z,36.50
2018-07-31T12:51:18.739Z,36.40
2018-07-31T12:53:48.747Z,35.60
2018-07-31T12:56:18.670Z,34.70
2018-07-31T12:58:48.555Z,36.40
2018-07-31T13:01:18.467Z,36.40
2018-07-31T13:03:48.356Z,35.30
2018-07-31T13:06:18.898Z,35.50
2018-07-31T13:08:48.794Z,35.60
2018-07-31T13:11:18.753Z,35.60
2018-07-31T13:13:48.653Z,35.60
2018-07-31T13:16:18.564Z,35.70
2018-07-31T13:18:48.478Z,37.00
2018-07-31T13:21:18.375Z,35.90
2018-07-31T13:23:48.274Z,35.80
2018-07-31T13:26:18.179Z,35.90
2018-07-31T13:28:48.067Z,36.20
2018-07-31T13:31:18.216Z,35.90
2018-07-31T13:33:48.079Z,36.00
2018-07-31T13:36:17.989Z,35.70
2018-07-31T13:41:17.336Z,35.80
2018-07-31T13:43:47.264Z,36.20
2018-07-31T13:46:17.038Z,35.90
2018-07-31T13:48:46.887Z,36.10
2018-07-31T13:51:16.750Z,36.10
2018-07-31T13:53:46.602Z,36.20
2018-07-31T13:56:16.456Z,36.30
2018-07-31T13:58:46.311Z,36.10
2018-07-31T14:01:16.383Z,36.10
2018-07-31T14:03:46.230Z,36.20
2018-07-31T14:06:16.090Z,36.00
2018-07-31T14:08:45.986Z,36.00
2018-07-31T14:11:15.853Z,35.90
2018-07-31T14:13:45.738Z,36.20
2018-07-31T14:16:15.570Z,36.40
2018-07-31T14:18:45.478Z,36.00
2018-07-31T14:21:15.362Z,36.20
2018-07-31T14:23:45.278Z,36.70
2018-07-31T14:26:15.146Z,36.50
2018-07-31T14:28:45.006Z,36.90
2018-07-31T14:31:21.209Z,37.00
2018-07-31T14:33:51.076Z,36.70
2018-07-31T14:36:20.926Z,36.90
2018-07-31T14:38:50.862Z,37.00
2018-07-31T14:41:20.682Z,36.50
2018-07-31T14:43:50.567Z,36.70
2018-07-31T14:46:20.418Z,36.90
2018-07-31T14:48:50.279Z,36.90
2018-07-31T14:51:20.137Z,36.80
2018-07-31T14:53:49.994Z,36.70
2018-07-31T14:56:19.836Z,36.40
2018-07-31T14:58:49.679Z,36.10
2018-07-31T15:01:19.547Z,35.90
2018-07-31T15:03:49.422Z,36.10
2018-07-31T15:06:19.271Z,35.90
2018-07-31T15:08:49.134Z,36.30
2018-07-31T15:11:19.067Z,36.60
2018-07-31T15:13:48.854Z,36.70
2018-07-31T15:16:18.723Z,36.30
2018-07-31T15:18:48.614Z,36.40
2018-07-31T15:21:18.560Z,36.50
2018-07-31T15:23:48.375Z,36.30
2018-07-31T15:26:18.224Z,36.40
2018-07-31T15:28:48.526Z,36.70
2018-07-31T15:31:18.383Z,36.80
2018-07-31T15:33:48.246Z,37.60
2018-07-31T15:36:19.252Z,36.70
2018-07-31T15:38:49.120Z,36.60
2018-07-31T15:41:19.070Z,36.70
2018-07-31T15:43:48.935Z,36.40
2018-07-31T15:46:18.799Z,36.40
2018-07-31T15:48:48.652Z,36.30
2018-07-31T15:51:18.516Z,36.40
2018-07-31T15:53:48.363Z,36.60
2018-07-31T15:56:18.217Z,36.50
2018-07-31T15:58:48.071Z,36.50
2018-07-31T16:01:17.915Z,36.20
2018-07-31T16:03:47.777Z,36.50
2018-07-31T16:06:17.668Z,36.70
2018-07-31T16:08:47.515Z,36.60
2018-07-31T16:11:17.366Z,36.50
2018-07-31T16:13:47.223Z,36.70
2018-07-31T16:16:17.071Z,36.20
2018-07-31T16:18:46.931Z,36.40
2018-07-31T16:21:16.783Z,36.40
2018-07-31T16:23:46.643Z,36.70
2018-07-31T16:26:16.492Z,36.50
2018-07-31T16:28:46.368Z,36.10
2018-07-31T16:31:16.217Z,36.40
2018-07-31T16:33:46.126Z,36.50
2018-07-31T16:36:16.033Z,36.30
2018-07-31T16:38:48.945Z,35.80
2018-07-31T16:41:18.880Z,35.80
2018-07-31T16:43:48.738Z,35.80
2018-07-31T16:46:18.667Z,35.90
2018-07-31T16:48:48.563Z,35.90
2018-07-31T16:51:18.522Z,36.50
2018-07-31T16:53:48.390Z,35.60
2018-07-31T16:56:18.295Z,35.60
2018-07-31T16:58:48.199Z,35.60
2018-07-31T17:01:18.152Z,35.40
2018-07-31T17:03:48.331Z,35.20
2018-07-31T17:06:18.246Z,35.20
2018-07-31T17:08:48.145Z,35.00
2018-07-31T17:11:18.118Z,35.10
2018-07-31T17:13:48.012Z,34.70
2018-07-31T17:16:17.955Z,34.60
2018-07-31T17:18:47.842Z,34.90
2018-07-31T17:21:17.818Z,34.80
2018-07-31T17:23:47.774Z,34.40
2018-07-31T17:26:17.673Z,34.10
2018-07-31T17:28:47.570Z,34.10
2018-07-31T17:31:17.474Z,34.50
2018-07-31T17:33:47.322Z,34.10
2018-07-31T17:36:17.191Z,34.30
2018-07-31T17:38:47.038Z,34.30
2018-07-31T17:41:16.894Z,34.50
2018-07-31T17:43:46.738Z,34.30
2018-07-31T17:46:16.645Z,35.00
2018-07-31T17:48:46.490Z,34.70
2018-07-31T17:51:16.359Z,35.20
2018-07-31T17:53:46.207Z,35.00
2018-07-31T17:56:16.083Z,34.70
2018-07-31T17:58:45.925Z,34.70
2018-07-31T18:01:15.783Z,34.60
2018-07-31T18:03:45.746Z,34.50
2018-07-31T18:06:15.562Z,34.40
2018-07-31T18:08:45.456Z,34.50
2018-07-31T18:11:15.323Z,35.00
2018-07-31T18:13:45.195Z,34.80
2018-07-31T18:16:15.190Z,34.90
2018-07-31T18:18:45.115Z,34.80
2018-07-31T18:21:14.966Z,34.80
2018-07-31T18:23:44.836Z,34.70
2018-07-31T18:26:14.942Z,34.60
2018-07-31T18:28:44.806Z,36.20
2018-07-31T18:31:14.649Z,36.00
2018-07-31T18:33:44.566Z,35.20
2018-07-31T18:36:14.454Z,35.80
2018-07-31T18:38:44.438Z,37.00
2018-07-31T18:41:15.281Z,35.60
2018-07-31T18:43:45.150Z,35.60
2018-07-31T18:46:15.150Z,36.60
2018-07-31T18:48:45.049Z,37.30
2018-07-31T18:51:14.941Z,37.90
2018-07-31T18:53:44.851Z,38.30
2018-07-31T18:56:14.750Z,38.60
2018-07-31T18:58:44.691Z,39.00
2018-07-31T19:01:14.738Z,39.60
2018-07-31T19:03:44.590Z,41.10
2018-07-31T19:06:14.485Z,40.90
2018-07-31T19:08:44.386Z,38.30
2018-07-31T19:11:14.274Z,38.50
2018-07-31T19:13:44.210Z,39.20
2018-07-31T19:16:14.129Z,39.50
2018-07-31T19:18:44.079Z,39.00
2018-07-31T19:21:13.976Z,39.00
2018-07-31T19:23:43.875Z,39.70
2018-07-31T19:26:20.136Z,40.20
2018-07-31T19:28:50.589Z,41.10
2018-07-31T19:31:20.487Z,40.80
2018-07-31T19:33:50.395Z,40.40
2018-07-31T19:36:20.566Z,41.00
2018-07-31T19:38:50.427Z,40.10
2018-07-31T19:41:20.298Z,40.90
2018-07-31T19:43:50.166Z,40.90
2018-07-31T19:48:50.082Z,40.50
2018-07-31T19:51:19.999Z,41.20
2018-07-31T19:53:49.871Z,41.30
2018-07-31T19:56:19.717Z,41.50
2018-07-31T19:58:49.610Z,40.60
2018-07-31T20:01:19.466Z,39.70
2018-07-31T20:03:49.348Z,39.70
2018-07-31T20:06:19.191Z,40.50
2018-07-31T20:08:49.042Z,40.20
2018-07-31T20:11:18.918Z,40.20
2018-07-31T20:13:48.776Z,41.00
2018-07-31T20:16:18.650Z,41.20
2018-07-31T20:18:48.570Z,41.10
2018-07-31T20:21:18.514Z,40.10
2018-07-31T20:23:50.306Z,40.50
2018-07-31T20:26:20.200Z,40.20
2018-07-31T20:28:50.055Z,41.30
2018-07-31T20:31:19.929Z,41.50
2018-07-31T20:33:49.794Z,40.70
2018-07-31T20:36:19.663Z,40.00
2018-07-31T20:38:50.046Z,41.00
2018-07-31T20:41:19.933Z,40.50
2018-07-31T20:43:49.774Z,40.00
2018-07-31T20:46:19.639Z,41.80
2018-07-31T20:48:49.491Z,41.10
2018-07-31T20:51:19.362Z,40.80
2018-07-31T20:53:49.221Z,40.90
2018-07-31T20:56:19.090Z,40.60
2018-07-31T20:58:48.948Z,40.50
2018-07-31T21:01:18.821Z,41.50
2018-07-31T21:03:48.736Z,41.80
2018-07-31T21:06:18.582Z,41.40
2018-07-31T21:08:48.427Z,41.50
2018-07-31T21:11:18.299Z,41.80
2018-07-31T21:13:48.158Z,41.20
2018-07-31T21:16:18.031Z,41.60
2018-07-31T21:18:47.972Z,42.00
2018-07-31T21:21:17.798Z,41.30
2018-07-31T21:23:47.655Z,41.50
2018-07-31T21:26:17.507Z,41.70
2018-07-31T21:28:47.368Z,42.40
2018-07-31T21:31:21.786Z,41.20
2018-07-31T21:33:51.762Z,42.20
2018-07-31T21:36:21.624Z,41.90
2018-07-31T21:38:51.919Z,42.60
2018-07-31T21:41:21.787Z,42.50
2018-07-31T21:43:51.706Z,43.10
2018-07-31T21:46:21.618Z,42.80
2018-07-31T21:48:51.458Z,43.10
2018-07-31T21:51:21.403Z,42.10
2018-07-31T21:53:51.656Z,41.90
2018-07-31T21:56:21.502Z,42.40
2018-07-31T21:58:51.363Z,42.50
2018-07-31T22:01:21.280Z,42.20
2018-07-31T22:03:51.202Z,42.60
2018-07-31T22:06:21.162Z,43.30
2018-07-31T22:08:51.119Z,42.70
2018-07-31T22:11:20.954Z,42.60
2018-07-31T22:13:50.877Z,42.90
2018-07-31T22:16:20.690Z,42.50
2018-07-31T22:18:50.555Z,43.00
2018-07-31T22:21:20.403Z,42.90
2018-07-31T22:23:50.271Z,42.70
2018-07-31T22:26:21.141Z,42.90
2018-07-31T22:28:51.169Z,43.00
2018-07-31T22:31:21.017Z,42.60
2018-07-31T22:33:50.888Z,43.10
2018-07-31T22:36:20.742Z,42.80
2018-07-31T22:38:50.727Z,42.80
2018-07-31T22:41:20.568Z,42.80
2018-07-31T22:43:50.564Z,43.20
2018-07-31T22:46:20.419Z,42.70
2018-07-31T22:48:50.334Z,43.00
2018-07-31T22:51:20.359Z,43.50
2018-07-31T22:53:50.234Z,43.20
2018-07-31T22:56:20.103Z,43.50
2018-07-31T22:58:49.951Z,43.50
2018-07-31T23:01:19.931Z,43.80
2018-07-31T23:03:49.806Z,44.30
2018-07-31T23:06:19.722Z,44.40
2018-07-31T23:08:49.579Z,44.40
2018-07-31T23:11:19.450Z,44.40
2018-07-31T23:13:49.339Z,44.20
2018-07-31T23:16:19.206Z,44.60
2018-07-31T23:18:49.302Z,43.90
2018-07-31T23:21:19.172Z,43.70
2018-07-31T23:23:49.110Z,43.50
2018-07-31T23:26:19.100Z,43.80
2018-07-31T23:28:48.941Z,44.50
2018-07-31T23:31:18.812Z,44.70
2018-07-31T23:33:48.674Z,44.50
2018-07-31T23:36:18.541Z,44.50
2018-07-31T23:38:48.399Z,44.70
2018-07-31T23:41:21.265Z,44.70
2018-07-31T23:43:51.113Z,44.90
2018-07-31T23:46:20.979Z,45.70
2018-07-31T23:48:50.840Z,45.30
2018-07-31T23:51:20.760Z,45.20
2018-07-31T23:53:50.615Z,45.40
2018-07-31T23:56:20.499Z,45.30
2018-07-31T23:58:50.355Z,45.20
